sensor_id;sensor_type;location;lat;lon;timestamp;P1;durP1;ratioP1;P2;durP2;ratioP2
19341;SDS011;9807;48.258;12.690;2022-08-19T00:01:28;9.23;;;7.50;;
19341;SDS011;9807;48.258;12.690;2022-08-19T00:03:55;9.30;;;8.37;;
19341;SDS011;9807;48.258;12.690;2022-08-19T00:06:21;9.67;;;8.20;;
19341;SDS011;9807;48.258;12.690;2022-08-19T00:08:47;9.00;;;7.93;;
19341;SDS011;9807;48.258;12.690;2022-08-19T00:11:13;12.03;;;10.50;;
19341;SDS011;9807;48.258;12.690;2022-08-19T00:13:39;10.00;;;8.83;;
19341;SDS011;9807;48.258;12.690;2022-08-19T00:16:05;13.53;;;9.77;;
19341;SDS011;9807;48.258;12.690;2022-08-19T00:18:32;13.37;;;9.30;;
19341;SDS011;9807;48.258;12.690;2022-08-19T00:20:58;10.93;;;8.50;;
19341;SDS011;9807;48.258;12.690;2022-08-19T00:23:25;11.90;;;9.77;;
19341;SDS011;9807;48.258;12.690;2022-08-19T00:25:51;11.50;;;10.23;;
19341;SDS011;9807;48.258;12.690;2022-08-19T00:28:17;10.60;;;9.50;;
19341;SDS011;9807;48.258;12.690;2022-08-19T00:30:43;9.47;;;8.10;;
19341;SDS011;9807;48.258;12.690;2022-08-19T00:33:09;9.30;;;7.37;;
19341;SDS011;9807;48.258;12.690;2022-08-19T00:35:35;12.10;;;8.43;;
19341;SDS011;9807;48.258;12.690;2022-08-19T00:38:03;9.77;;;8.40;;
19341;SDS011;9807;48.258;12.690;2022-08-19T00:40:31;10.73;;;8.67;;
19341;SDS011;9807;48.258;12.690;2022-08-19T00:42:57;13.47;;;10.37;;
19341;SDS011;9807;48.258;12.690;2022-08-19T00:45:24;13.53;;;10.40;;
19341;SDS011;9807;48.258;12.690;2022-08-19T00:47:55;13.63;;;9.63;;
19341;SDS011;9807;48.258;12.690;2022-08-19T00:50:21;12.60;;;10.30;;
19341;SDS011;9807;48.258;12.690;2022-08-19T00:52:48;12.10;;;10.60;;
19341;SDS011;9807;48.258;12.690;2022-08-19T00:55:18;14.60;;;10.90;;
19341;SDS011;9807;48.258;12.690;2022-08-19T00:57:48;13.07;;;10.57;;
19341;SDS011;9807;48.258;12.690;2022-08-19T01:00:20;12.43;;;9.77;;
19341;SDS011;9807;48.258;12.690;2022-08-19T01:02:48;14.33;;;10.00;;
19341;SDS011;9807;48.258;12.690;2022-08-19T01:05:18;10.50;;;9.40;;
19341;SDS011;9807;48.258;12.690;2022-08-19T01:07:47;10.93;;;9.83;;
19341;SDS011;9807;48.258;12.690;2022-08-19T01:10:16;13.97;;;11.90;;
19341;SDS011;9807;48.258;12.690;2022-08-19T01:12:45;14.47;;;11.70;;
19341;SDS011;9807;48.258;12.690;2022-08-19T01:15:13;11.63;;;9.77;;
19341;SDS011;9807;48.258;12.690;2022-08-19T01:17:42;19.60;;;12.73;;
19341;SDS011;9807;48.258;12.690;2022-08-19T01:20:11;12.87;;;10.50;;
19341;SDS011;9807;48.258;12.690;2022-08-19T01:25:15;10.57;;;9.17;;
19341;SDS011;9807;48.258;12.690;2022-08-19T01:27:47;12.93;;;10.33;;
19341;SDS011;9807;48.258;12.690;2022-08-19T01:30:16;12.70;;;11.27;;
19341;SDS011;9807;48.258;12.690;2022-08-19T01:32:46;12.97;;;11.17;;
19341;SDS011;9807;48.258;12.690;2022-08-19T01:35:12;13.80;;;11.90;;
19341;SDS011;9807;48.258;12.690;2022-08-19T01:37:49;13.20;;;11.80;;
19341;SDS011;9807;48.258;12.690;2022-08-19T01:40:18;14.27;;;12.40;;
19341;SDS011;9807;48.258;12.690;2022-08-19T01:42:50;17.27;;;13.07;;
19341;SDS011;9807;48.258;12.690;2022-08-19T01:45:17;10.20;;;9.13;;
19341;SDS011;9807;48.258;12.690;2022-08-19T01:47:44;10.73;;;9.63;;
19341;SDS011;9807;48.258;12.690;2022-08-19T01:50:11;17.57;;;11.50;;
19341;SDS011;9807;48.258;12.690;2022-08-19T01:52:38;15.30;;;12.93;;
19341;SDS011;9807;48.258;12.690;2022-08-19T01:55:07;16.37;;;12.60;;
19341;SDS011;9807;48.258;12.690;2022-08-19T01:57:36;16.10;;;13.67;;
19341;SDS011;9807;48.258;12.690;2022-08-19T02:00:05;16.70;;;13.13;;
19341;SDS011;9807;48.258;12.690;2022-08-19T02:02:35;13.20;;;11.77;;
19341;SDS011;9807;48.258;12.690;2022-08-19T02:05:01;15.93;;;13.63;;
19341;SDS011;9807;48.258;12.690;2022-08-19T02:07:27;17.50;;;14.80;;
19341;SDS011;9807;48.258;12.690;2022-08-19T02:09:54;16.87;;;13.80;;
19341;SDS011;9807;48.258;12.690;2022-08-19T02:12:20;19.63;;;15.30;;
19341;SDS011;9807;48.258;12.690;2022-08-19T02:14:46;18.73;;;14.87;;
19341;SDS011;9807;48.258;12.690;2022-08-19T02:17:12;15.00;;;13.40;;
19341;SDS011;9807;48.258;12.690;2022-08-19T02:19:38;14.97;;;13.33;;
19341;SDS011;9807;48.258;12.690;2022-08-19T02:22:05;11.03;;;9.77;;
19341;SDS011;9807;48.258;12.690;2022-08-19T02:24:31;12.37;;;11.07;;
19341;SDS011;9807;48.258;12.690;2022-08-19T02:26:56;10.47;;;9.37;;
19341;SDS011;9807;48.258;12.690;2022-08-19T02:29:23;14.43;;;11.20;;
19341;SDS011;9807;48.258;12.690;2022-08-19T02:31:49;9.97;;;8.93;;
19341;SDS011;9807;48.258;12.690;2022-08-19T02:34:16;13.10;;;10.77;;
19341;SDS011;9807;48.258;12.690;2022-08-19T02:36:42;12.20;;;10.03;;
19341;SDS011;9807;48.258;12.690;2022-08-19T02:39:09;10.83;;;9.60;;
19341;SDS011;9807;48.258;12.690;2022-08-19T02:41:35;11.80;;;10.30;;
19341;SDS011;9807;48.258;12.690;2022-08-19T02:44:03;12.00;;;10.57;;
19341;SDS011;9807;48.258;12.690;2022-08-19T02:46:30;11.20;;;10.00;;
19341;SDS011;9807;48.258;12.690;2022-08-19T02:48:59;13.73;;;10.53;;
19341;SDS011;9807;48.258;12.690;2022-08-19T02:51:45;13.77;;;10.37;;
19341;SDS011;9807;48.258;12.690;2022-08-19T02:54:12;10.70;;;9.60;;
19341;SDS011;9807;48.258;12.690;2022-08-19T02:56:40;11.27;;;9.70;;
19341;SDS011;9807;48.258;12.690;2022-08-19T02:59:06;11.30;;;10.10;;
19341;SDS011;9807;48.258;12.690;2022-08-19T03:01:36;11.53;;;9.43;;
19341;SDS011;9807;48.258;12.690;2022-08-19T03:04:05;10.67;;;9.53;;
19341;SDS011;9807;48.258;12.690;2022-08-19T03:06:35;10.27;;;8.97;;
19341;SDS011;9807;48.258;12.690;2022-08-19T03:09:02;10.90;;;9.63;;
19341;SDS011;9807;48.258;12.690;2022-08-19T03:11:29;11.67;;;9.60;;
19341;SDS011;9807;48.258;12.690;2022-08-19T03:13:56;12.83;;;9.87;;
19341;SDS011;9807;48.258;12.690;2022-08-19T03:16:23;12.67;;;9.70;;
19341;SDS011;9807;48.258;12.690;2022-08-19T03:18:52;12.73;;;10.00;;
19341;SDS011;9807;48.258;12.690;2022-08-19T03:21:20;13.17;;;9.70;;
19341;SDS011;9807;48.258;12.690;2022-08-19T03:23:49;11.53;;;9.40;;
19341;SDS011;9807;48.258;12.690;2022-08-19T03:26:15;13.27;;;10.97;;
19341;SDS011;9807;48.258;12.690;2022-08-19T03:28:41;6.40;;;5.63;;
19341;SDS011;9807;48.258;12.690;2022-08-19T03:31:11;7.50;;;5.90;;
19341;SDS011;9807;48.258;12.690;2022-08-19T03:33:39;11.67;;;9.03;;
19341;SDS011;9807;48.258;12.690;2022-08-19T03:36:12;9.77;;;8.77;;
19341;SDS011;9807;48.258;12.690;2022-08-19T03:38:42;11.03;;;8.93;;
19341;SDS011;9807;48.258;12.690;2022-08-19T03:41:12;8.40;;;7.43;;
19341;SDS011;9807;48.258;12.690;2022-08-19T03:43:43;7.63;;;6.93;;
19341;SDS011;9807;48.258;12.690;2022-08-19T03:46:12;6.63;;;6.03;;
19341;SDS011;9807;48.258;12.690;2022-08-19T03:48:40;8.73;;;7.83;;
19341;SDS011;9807;48.258;12.690;2022-08-19T03:51:14;8.17;;;6.60;;
19341;SDS011;9807;48.258;12.690;2022-08-19T03:53:45;10.80;;;9.77;;
19341;SDS011;9807;48.258;12.690;2022-08-19T03:56:11;10.87;;;8.53;;
19341;SDS011;9807;48.258;12.690;2022-08-19T03:58:38;8.67;;;7.50;;
19341;SDS011;9807;48.258;12.690;2022-08-19T04:01:10;10.70;;;8.10;;
19341;SDS011;9807;48.258;12.690;2022-08-19T04:03:37;5.90;;;5.37;;
19341;SDS011;9807;48.258;12.690;2022-08-19T04:06:14;5.60;;;5.10;;
19341;SDS011;9807;48.258;12.690;2022-08-19T04:08:42;8.40;;;7.53;;
19341;SDS011;9807;48.258;12.690;2022-08-19T04:11:10;9.93;;;8.07;;
19341;SDS011;9807;48.258;12.690;2022-08-19T04:13:38;9.93;;;7.90;;
19341;SDS011;9807;48.258;12.690;2022-08-19T04:16:04;5.80;;;4.60;;
19341;SDS011;9807;48.258;12.690;2022-08-19T04:18:31;6.20;;;5.60;;
19341;SDS011;9807;48.258;12.690;2022-08-19T04:20:58;5.80;;;5.30;;
19341;SDS011;9807;48.258;12.690;2022-08-19T04:23:25;7.20;;;6.50;;
19341;SDS011;9807;48.258;12.690;2022-08-19T04:25:53;6.40;;;5.33;;
19341;SDS011;9807;48.258;12.690;2022-08-19T04:28:19;5.43;;;4.87;;
19341;SDS011;9807;48.258;12.690;2022-08-19T04:30:46;6.13;;;5.00;;
19341;SDS011;9807;48.258;12.690;2022-08-19T04:33:15;4.83;;;4.40;;
19341;SDS011;9807;48.258;12.690;2022-08-19T04:35:43;4.10;;;3.80;;
19341;SDS011;9807;48.258;12.690;2022-08-19T04:38:11;4.27;;;3.97;;
19341;SDS011;9807;48.258;12.690;2022-08-19T04:40:46;4.43;;;4.03;;
19341;SDS011;9807;48.258;12.690;2022-08-19T04:43:32;3.97;;;3.67;;
19341;SDS011;9807;48.258;12.690;2022-08-19T04:46:04;7.77;;;4.50;;
19341;SDS011;9807;48.258;12.690;2022-08-19T04:48:35;6.03;;;5.43;;
19341;SDS011;9807;48.258;12.690;2022-08-19T04:51:06;6.50;;;5.90;;
19341;SDS011;9807;48.258;12.690;2022-08-19T04:53:34;6.20;;;5.60;;
19341;SDS011;9807;48.258;12.690;2022-08-19T04:56:05;5.43;;;4.93;;
19341;SDS011;9807;48.258;12.690;2022-08-19T04:58:33;4.10;;;3.80;;
19341;SDS011;9807;48.258;12.690;2022-08-19T05:00:59;6.07;;;4.57;;
19341;SDS011;9807;48.258;12.690;2022-08-19T05:03:25;5.87;;;5.37;;
19341;SDS011;9807;48.258;12.690;2022-08-19T05:05:51;6.90;;;4.63;;
19341;SDS011;9807;48.258;12.690;2022-08-19T05:08:19;5.17;;;4.33;;
19341;SDS011;9807;48.258;12.690;2022-08-19T05:10:47;6.33;;;5.70;;
19341;SDS011;9807;48.258;12.690;2022-08-19T05:13:14;3.97;;;3.60;;
19341;SDS011;9807;48.258;12.690;2022-08-19T05:15:42;5.57;;;4.53;;
19341;SDS011;9807;48.258;12.690;2022-08-19T05:18:18;5.83;;;5.23;;
19341;SDS011;9807;48.258;12.690;2022-08-19T05:21:06;6.83;;;5.83;;
19341;SDS011;9807;48.258;12.690;2022-08-19T05:23:52;6.93;;;5.53;;
19341;SDS011;9807;48.258;12.690;2022-08-19T05:26:18;6.70;;;5.50;;
19341;SDS011;9807;48.258;12.690;2022-08-19T05:28:43;9.43;;;6.80;;
19341;SDS011;9807;48.258;12.690;2022-08-19T05:31:09;7.37;;;6.67;;
19341;SDS011;9807;48.258;12.690;2022-08-19T05:33:35;6.77;;;5.97;;
19341;SDS011;9807;48.258;12.690;2022-08-19T05:36:01;7.37;;;6.17;;
19341;SDS011;9807;48.258;12.690;2022-08-19T05:38:29;11.03;;;7.00;;
19341;SDS011;9807;48.258;12.690;2022-08-19T05:40:55;7.67;;;6.97;;
19341;SDS011;9807;48.258;12.690;2022-08-19T05:43:21;9.00;;;6.23;;
19341;SDS011;9807;48.258;12.690;2022-08-19T05:45:46;8.60;;;6.33;;
19341;SDS011;9807;48.258;12.690;2022-08-19T05:48:12;7.60;;;6.63;;
19341;SDS011;9807;48.258;12.690;2022-08-19T05:50:39;6.63;;;6.03;;
19341;SDS011;9807;48.258;12.690;2022-08-19T05:53:07;9.93;;;6.63;;
19341;SDS011;9807;48.258;12.690;2022-08-19T05:55:34;10.57;;;7.03;;
19341;SDS011;9807;48.258;12.690;2022-08-19T05:58:00;8.17;;;7.37;;
19341;SDS011;9807;48.258;12.690;2022-08-19T06:00:26;11.20;;;7.37;;
19341;SDS011;9807;48.258;12.690;2022-08-19T06:02:55;9.77;;;7.47;;
19341;SDS011;9807;48.258;12.690;2022-08-19T06:05:21;11.10;;;7.00;;
19341;SDS011;9807;48.258;12.690;2022-08-19T06:07:49;9.77;;;7.57;;
19341;SDS011;9807;48.258;12.690;2022-08-19T06:10:15;8.07;;;6.70;;
19341;SDS011;9807;48.258;12.690;2022-08-19T06:12:40;8.27;;;7.40;;
19341;SDS011;9807;48.258;12.690;2022-08-19T06:15:10;9.97;;;6.93;;
19341;SDS011;9807;48.258;12.690;2022-08-19T06:17:38;7.63;;;6.87;;
19341;SDS011;9807;48.258;12.690;2022-08-19T06:20:05;8.37;;;7.17;;
19341;SDS011;9807;48.258;12.690;2022-08-19T06:22:37;7.70;;;6.90;;
19341;SDS011;9807;48.258;12.690;2022-08-19T06:25:04;7.20;;;6.53;;
19341;SDS011;9807;48.258;12.690;2022-08-19T06:27:30;9.93;;;7.07;;
19341;SDS011;9807;48.258;12.690;2022-08-19T06:29:57;8.43;;;6.97;;
19341;SDS011;9807;48.258;12.690;2022-08-19T06:32:23;10.37;;;6.13;;
19341;SDS011;9807;48.258;12.690;2022-08-19T06:34:49;9.00;;;6.40;;
19341;SDS011;9807;48.258;12.690;2022-08-19T06:37:14;7.13;;;6.23;;
19341;SDS011;9807;48.258;12.690;2022-08-19T06:39:41;8.33;;;6.17;;
19341;SDS011;9807;48.258;12.690;2022-08-19T06:42:10;10.03;;;6.27;;
19341;SDS011;9807;48.258;12.690;2022-08-19T06:44:38;7.47;;;6.60;;
19341;SDS011;9807;48.258;12.690;2022-08-19T06:47:06;7.17;;;6.07;;
19341;SDS011;9807;48.258;12.690;2022-08-19T06:49:33;6.63;;;6.03;;
19341;SDS011;9807;48.258;12.690;2022-08-19T06:52:00;8.07;;;6.93;;
19341;SDS011;9807;48.258;12.690;2022-08-19T06:54:27;7.10;;;6.27;;
19341;SDS011;9807;48.258;12.690;2022-08-19T06:56:54;6.77;;;6.03;;
19341;SDS011;9807;48.258;12.690;2022-08-19T06:59:22;11.73;;;6.73;;
19341;SDS011;9807;48.258;12.690;2022-08-19T07:01:54;9.93;;;6.63;;
19341;SDS011;9807;48.258;12.690;2022-08-19T07:04:22;7.93;;;6.90;;
19341;SDS011;9807;48.258;12.690;2022-08-19T07:06:50;8.13;;;6.80;;
19341;SDS011;9807;48.258;12.690;2022-08-19T07:09:21;8.33;;;6.47;;
19341;SDS011;9807;48.258;12.690;2022-08-19T07:11:48;9.67;;;7.70;;
19341;SDS011;9807;48.258;12.690;2022-08-19T07:14:16;8.53;;;7.33;;
19341;SDS011;9807;48.258;12.690;2022-08-19T07:16:45;8.70;;;7.00;;
19341;SDS011;9807;48.258;12.690;2022-08-19T07:19:13;8.20;;;6.93;;
19341;SDS011;9807;48.258;12.690;2022-08-19T07:21:39;6.13;;;5.53;;
19341;SDS011;9807;48.258;12.690;2022-08-19T07:24:06;8.20;;;7.03;;
19341;SDS011;9807;48.258;12.690;2022-08-19T07:26:33;11.60;;;6.73;;
19341;SDS011;9807;48.258;12.690;2022-08-19T07:29:04;8.70;;;6.30;;
19341;SDS011;9807;48.258;12.690;2022-08-19T07:31:30;11.00;;;7.40;;
19341;SDS011;9807;48.258;12.690;2022-08-19T07:34:01;10.23;;;7.63;;
19341;SDS011;9807;48.258;12.690;2022-08-19T07:36:32;9.90;;;8.90;;
19341;SDS011;9807;48.258;12.690;2022-08-19T07:39:00;9.60;;;8.60;;
19341;SDS011;9807;48.258;12.690;2022-08-19T07:41:29;11.97;;;10.63;;
19341;SDS011;9807;48.258;12.690;2022-08-19T07:43:56;13.53;;;11.40;;
19341;SDS011;9807;48.258;12.690;2022-08-19T07:46:28;13.50;;;10.43;;
19341;SDS011;9807;48.258;12.690;2022-08-19T07:48:57;14.30;;;10.47;;
19341;SDS011;9807;48.258;12.690;2022-08-19T07:51:23;13.63;;;9.73;;
19341;SDS011;9807;48.258;12.690;2022-08-19T07:53:49;11.77;;;10.50;;
19341;SDS011;9807;48.258;12.690;2022-08-19T07:56:16;15.73;;;10.93;;
19341;SDS011;9807;48.258;12.690;2022-08-19T07:58:44;12.83;;;9.40;;
19341;SDS011;9807;48.258;12.690;2022-08-19T08:01:13;15.50;;;10.10;;
19341;SDS011;9807;48.258;12.690;2022-08-19T08:03:41;14.47;;;10.50;;
19341;SDS011;9807;48.258;12.690;2022-08-19T08:06:27;13.53;;;10.73;;
19341;SDS011;9807;48.258;12.690;2022-08-19T08:09:11;9.30;;;8.00;;
19341;SDS011;9807;48.258;12.690;2022-08-19T08:11:47;15.67;;;11.40;;
19341;SDS011;9807;48.258;12.690;2022-08-19T08:14:23;11.70;;;9.90;;
19341;SDS011;9807;48.258;12.690;2022-08-19T08:16:51;8.80;;;7.90;;
19341;SDS011;9807;48.258;12.690;2022-08-19T08:19:18;5.63;;;5.10;;
19341;SDS011;9807;48.258;12.690;2022-08-19T08:21:46;11.83;;;8.87;;
19341;SDS011;9807;48.258;12.690;2022-08-19T08:24:12;11.20;;;8.87;;
19341;SDS011;9807;48.258;12.690;2022-08-19T08:26:39;11.07;;;8.30;;
19341;SDS011;9807;48.258;12.690;2022-08-19T08:29:05;9.27;;;7.90;;
19341;SDS011;9807;48.258;12.690;2022-08-19T08:31:37;12.57;;;10.03;;
19341;SDS011;9807;48.258;12.690;2022-08-19T08:34:04;11.00;;;7.87;;
19341;SDS011;9807;48.258;12.690;2022-08-19T08:36:30;15.43;;;9.17;;
19341;SDS011;9807;48.258;12.690;2022-08-19T08:38:58;14.47;;;12.37;;
19341;SDS011;9807;48.258;12.690;2022-08-19T08:41:28;11.73;;;9.50;;
19341;SDS011;9807;48.258;12.690;2022-08-19T08:43:59;8.37;;;6.47;;
19341;SDS011;9807;48.258;12.690;2022-08-19T08:51:37;8.83;;;7.10;;
19341;SDS011;9807;48.258;12.690;2022-08-19T08:54:07;14.23;;;11.17;;
19341;SDS011;9807;48.258;12.690;2022-08-19T08:56:40;10.73;;;9.47;;
19341;SDS011;9807;48.258;12.690;2022-08-19T08:59:28;7.43;;;6.60;;
19341;SDS011;9807;48.258;12.690;2022-08-19T09:01:57;10.73;;;8.90;;
19341;SDS011;9807;48.258;12.690;2022-08-19T09:04:23;13.57;;;10.87;;
19341;SDS011;9807;48.258;12.690;2022-08-19T09:14:49;15.23;;;12.13;;
19341;SDS011;9807;48.258;12.690;2022-08-19T09:17:22;12.30;;;10.90;;
19341;SDS011;9807;48.258;12.690;2022-08-19T09:22:43;10.33;;;8.63;;
19341;SDS011;9807;48.258;12.690;2022-08-19T09:25:10;9.37;;;7.43;;
19341;SDS011;9807;48.258;12.690;2022-08-19T09:27:38;8.83;;;7.93;;
19341;SDS011;9807;48.258;12.690;2022-08-19T09:30:06;10.57;;;9.40;;
19341;SDS011;9807;48.258;12.690;2022-08-19T09:32:34;13.57;;;11.27;;
19341;SDS011;9807;48.258;12.690;2022-08-19T09:34:59;8.67;;;7.77;;
19341;SDS011;9807;48.258;12.690;2022-08-19T09:37:26;9.00;;;8.10;;
19341;SDS011;9807;48.258;12.690;2022-08-19T09:39:52;9.93;;;7.87;;
19341;SDS011;9807;48.258;12.690;2022-08-19T09:42:18;15.07;;;11.80;;
19341;SDS011;9807;48.258;12.690;2022-08-19T09:44:45;15.60;;;11.70;;
19341;SDS011;9807;48.258;12.690;2022-08-19T09:47:12;14.03;;;11.23;;
19341;SDS011;9807;48.258;12.690;2022-08-19T09:49:38;11.50;;;10.30;;
19341;SDS011;9807;48.258;12.690;2022-08-19T09:52:05;13.30;;;11.50;;
19341;SDS011;9807;48.258;12.690;2022-08-19T09:54:32;12.77;;;9.47;;
19341;SDS011;9807;48.258;12.690;2022-08-19T09:56:59;13.30;;;10.00;;
19341;SDS011;9807;48.258;12.690;2022-08-19T09:59:25;17.47;;;11.57;;
19341;SDS011;9807;48.258;12.690;2022-08-19T10:01:52;13.40;;;9.93;;
19341;SDS011;9807;48.258;12.690;2022-08-19T10:04:18;13.83;;;10.83;;
19341;SDS011;9807;48.258;12.690;2022-08-19T10:06:46;15.00;;;12.03;;
19341;SDS011;9807;48.258;12.690;2022-08-19T10:09:13;13.63;;;10.80;;
19341;SDS011;9807;48.258;12.690;2022-08-19T10:11:40;17.03;;;10.20;;
19341;SDS011;9807;48.258;12.690;2022-08-19T10:14:13;15.53;;;10.20;;
19341;SDS011;9807;48.258;12.690;2022-08-19T10:16:40;11.90;;;10.23;;
19341;SDS011;9807;48.258;12.690;2022-08-19T10:19:07;9.70;;;8.60;;
19341;SDS011;9807;48.258;12.690;2022-08-19T10:21:34;12.67;;;10.17;;
19341;SDS011;9807;48.258;12.690;2022-08-19T10:24:01;12.00;;;10.57;;
19341;SDS011;9807;48.258;12.690;2022-08-19T10:26:30;16.93;;;11.20;;
19341;SDS011;9807;48.258;12.690;2022-08-19T10:28:59;11.37;;;9.17;;
19341;SDS011;9807;48.258;12.690;2022-08-19T10:31:29;12.03;;;10.07;;
19341;SDS011;9807;48.258;12.690;2022-08-19T10:33:57;8.63;;;7.80;;
19341;SDS011;9807;48.258;12.690;2022-08-19T10:36:27;6.83;;;5.70;;
19341;SDS011;9807;48.258;12.690;2022-08-19T10:38:57;13.00;;;9.93;;
19341;SDS011;9807;48.258;12.690;2022-08-19T10:41:27;12.97;;;10.87;;
19341;SDS011;9807;48.258;12.690;2022-08-19T10:43:54;13.47;;;11.07;;
19341;SDS011;9807;48.258;12.690;2022-08-19T10:46:23;12.40;;;11.10;;
19341;SDS011;9807;48.258;12.690;2022-08-19T10:48:50;17.07;;;14.03;;
19341;SDS011;9807;48.258;12.690;2022-08-19T10:51:17;19.27;;;13.23;;
19341;SDS011;9807;48.258;12.690;2022-08-19T10:54:03;15.00;;;12.67;;
19341;SDS011;9807;48.258;12.690;2022-08-19T10:56:29;14.53;;;11.57;;
19341;SDS011;9807;48.258;12.690;2022-08-19T10:59:15;12.23;;;10.80;;
19341;SDS011;9807;48.258;12.690;2022-08-19T11:01:46;12.80;;;10.47;;
19341;SDS011;9807;48.258;12.690;2022-08-19T11:04:12;12.13;;;10.80;;
19341;SDS011;9807;48.258;12.690;2022-08-19T11:06:38;12.10;;;10.43;;
19341;SDS011;9807;48.258;12.690;2022-08-19T11:09:06;12.43;;;10.97;;
19341;SDS011;9807;48.258;12.690;2022-08-19T11:11:32;13.07;;;10.40;;
19341;SDS011;9807;48.258;12.690;2022-08-19T11:14:09;16.17;;;12.50;;
19341;SDS011;9807;48.258;12.690;2022-08-19T11:16:37;12.90;;;9.13;;
19341;SDS011;9807;48.258;12.690;2022-08-19T11:19:04;13.00;;;11.15;;
19341;SDS011;9807;48.258;12.690;2022-08-19T11:21:33;11.97;;;10.27;;
19341;SDS011;9807;48.258;12.690;2022-08-19T11:24:03;10.27;;;9.17;;
19341;SDS011;9807;48.258;12.690;2022-08-19T11:26:31;12.07;;;10.67;;
19341;SDS011;9807;48.258;12.690;2022-08-19T11:28:58;13.27;;;10.77;;
19341;SDS011;9807;48.258;12.690;2022-08-19T11:31:26;12.53;;;9.83;;
19341;SDS011;9807;48.258;12.690;2022-08-19T11:33:55;11.03;;;9.30;;
19341;SDS011;9807;48.258;12.690;2022-08-19T11:36:22;10.97;;;9.53;;
19341;SDS011;9807;48.258;12.690;2022-08-19T11:38:48;11.50;;;10.30;;
19341;SDS011;9807;48.258;12.690;2022-08-19T11:41:15;11.60;;;10.40;;
19341;SDS011;9807;48.258;12.690;2022-08-19T11:43:43;14.20;;;11.37;;
19341;SDS011;9807;48.258;12.690;2022-08-19T11:46:11;10.23;;;9.20;;
19341;SDS011;9807;48.258;12.690;2022-08-19T11:48:39;10.20;;;8.93;;
19341;SDS011;9807;48.258;12.690;2022-08-19T11:51:07;11.50;;;10.00;;
19341;SDS011;9807;48.258;12.690;2022-08-19T11:53:35;9.90;;;8.90;;
19341;SDS011;9807;48.258;12.690;2022-08-19T11:56:05;11.17;;;10.00;;
19341;SDS011;9807;48.258;12.690;2022-08-19T11:58:31;10.57;;;9.47;;
19341;SDS011;9807;48.258;12.690;2022-08-19T12:00:57;9.50;;;8.50;;
19341;SDS011;9807;48.258;12.690;2022-08-19T12:03:26;9.13;;;7.07;;
19341;SDS011;9807;48.258;12.690;2022-08-19T12:05:52;7.90;;;7.10;;
19341;SDS011;9807;48.258;12.690;2022-08-19T12:08:19;7.53;;;6.77;;
19341;SDS011;9807;48.258;12.690;2022-08-19T12:10:45;7.57;;;6.77;;
19341;SDS011;9807;48.258;12.690;2022-08-19T12:13:11;10.23;;;7.23;;
19341;SDS011;9807;48.258;12.690;2022-08-19T12:15:43;11.30;;;7.43;;
19341;SDS011;9807;48.258;12.690;2022-08-19T12:18:10;8.57;;;7.67;;
19341;SDS011;9807;48.258;12.690;2022-08-19T12:20:38;8.70;;;7.80;;
19341;SDS011;9807;48.258;12.690;2022-08-19T12:23:11;9.80;;;7.27;;
19341;SDS011;9807;48.258;12.690;2022-08-19T12:25:42;10.17;;;6.63;;
19341;SDS011;9807;48.258;12.690;2022-08-19T12:28:16;7.17;;;6.47;;
19341;SDS011;9807;48.258;12.690;2022-08-19T12:30:47;7.03;;;6.00;;
19341;SDS011;9807;48.258;12.690;2022-08-19T12:33:14;7.50;;;6.80;;
19341;SDS011;9807;48.258;12.690;2022-08-19T12:35:40;9.07;;;6.67;;
19341;SDS011;9807;48.258;12.690;2022-08-19T12:38:09;7.77;;;6.70;;
19341;SDS011;9807;48.258;12.690;2022-08-19T12:40:36;7.77;;;7.03;;
19341;SDS011;9807;48.258;12.690;2022-08-19T12:43:02;8.17;;;7.10;;
19341;SDS011;9807;48.258;12.690;2022-08-19T12:45:29;8.40;;;6.10;;
19341;SDS011;9807;48.258;12.690;2022-08-19T12:47:54;7.10;;;6.40;;
19341;SDS011;9807;48.258;12.690;2022-08-19T12:50:20;8.27;;;6.73;;
19341;SDS011;9807;48.258;12.690;2022-08-19T12:52:47;8.07;;;6.10;;
19341;SDS011;9807;48.258;12.690;2022-08-19T12:55:13;9.27;;;5.63;;
19341;SDS011;9807;48.258;12.690;2022-08-19T12:57:38;6.40;;;5.80;;
19341;SDS011;9807;48.258;12.690;2022-08-19T13:00:06;7.40;;;5.50;;
19341;SDS011;9807;48.258;12.690;2022-08-19T13:02:37;6.00;;;5.50;;
19341;SDS011;9807;48.258;12.690;2022-08-19T13:05:04;6.47;;;5.50;;
19341;SDS011;9807;48.258;12.690;2022-08-19T13:07:32;6.43;;;5.80;;
19341;SDS011;9807;48.258;12.690;2022-08-19T13:09:57;5.60;;;5.10;;
19341;SDS011;9807;48.258;12.690;2022-08-19T13:12:23;5.17;;;4.77;;
19341;SDS011;9807;48.258;12.690;2022-08-19T13:14:51;4.20;;;3.80;;
19341;SDS011;9807;48.258;12.690;2022-08-19T13:17:18;5.10;;;4.70;;
19341;SDS011;9807;48.258;12.690;2022-08-19T13:19:45;5.57;;;5.07;;
19341;SDS011;9807;48.258;12.690;2022-08-19T13:22:10;5.30;;;4.80;;
19341;SDS011;9807;48.258;12.690;2022-08-19T13:24:37;6.00;;;5.10;;
19341;SDS011;9807;48.258;12.690;2022-08-19T13:27:03;5.23;;;4.73;;
19341;SDS011;9807;48.258;12.690;2022-08-19T13:29:29;4.80;;;4.37;;
19341;SDS011;9807;48.258;12.690;2022-08-19T13:32:13;4.77;;;4.37;;
19341;SDS011;9807;48.258;12.690;2022-08-19T13:34:57;4.70;;;4.30;;
19341;SDS011;9807;48.258;12.690;2022-08-19T13:37:23;6.00;;;4.57;;
19341;SDS011;9807;48.258;12.690;2022-08-19T13:40:06;7.13;;;4.97;;
19341;SDS011;9807;48.258;12.690;2022-08-19T13:42:43;5.30;;;4.80;;
19341;SDS011;9807;48.258;12.690;2022-08-19T13:45:11;4.87;;;4.47;;
19341;SDS011;9807;48.258;12.690;2022-08-19T13:47:45;6.50;;;4.83;;
19341;SDS011;9807;48.258;12.690;2022-08-19T13:50:12;4.93;;;4.50;;
19341;SDS011;9807;48.258;12.690;2022-08-19T13:52:40;6.57;;;5.20;;
19341;SDS011;9807;48.258;12.690;2022-08-19T13:55:07;4.90;;;4.40;;
19341;SDS011;9807;48.258;12.690;2022-08-19T13:57:34;5.37;;;4.87;;
19341;SDS011;9807;48.258;12.690;2022-08-19T14:00:00;6.00;;;4.90;;
19341;SDS011;9807;48.258;12.690;2022-08-19T14:02:27;6.00;;;4.57;;
19341;SDS011;9807;48.258;12.690;2022-08-19T14:04:53;7.43;;;5.50;;
19341;SDS011;9807;48.258;12.690;2022-08-19T14:07:19;6.00;;;5.30;;
19341;SDS011;9807;48.258;12.690;2022-08-19T14:09:48;5.43;;;4.93;;
19341;SDS011;9807;48.258;12.690;2022-08-19T14:12:17;6.00;;;5.40;;
19341;SDS011;9807;48.258;12.690;2022-08-19T14:14:45;6.53;;;5.20;;
19341;SDS011;9807;48.258;12.690;2022-08-19T14:17:11;5.57;;;5.07;;
19341;SDS011;9807;48.258;12.690;2022-08-19T14:19:37;5.73;;;5.23;;
19341;SDS011;9807;48.258;12.690;2022-08-19T14:22:03;6.33;;;5.73;;
19341;SDS011;9807;48.258;12.690;2022-08-19T14:24:30;5.97;;;5.37;;
19341;SDS011;9807;48.258;12.690;2022-08-19T14:26:57;5.77;;;4.77;;
19341;SDS011;9807;48.258;12.690;2022-08-19T14:29:24;6.50;;;5.67;;
19341;SDS011;9807;48.258;12.690;2022-08-19T14:31:51;6.53;;;5.93;;
19341;SDS011;9807;48.258;12.690;2022-08-19T14:34:17;6.07;;;5.30;;
19341;SDS011;9807;48.258;12.690;2022-08-19T14:36:45;5.90;;;5.40;;
19341;SDS011;9807;48.258;12.690;2022-08-19T14:39:11;7.30;;;6.60;;
19341;SDS011;9807;48.258;12.690;2022-08-19T14:41:39;6.83;;;6.17;;
19341;SDS011;9807;48.258;12.690;2022-08-19T14:44:07;6.60;;;5.87;;
19341;SDS011;9807;48.258;12.690;2022-08-19T14:46:35;5.70;;;5.10;;
19341;SDS011;9807;48.258;12.690;2022-08-19T14:49:00;9.23;;;6.50;;
19341;SDS011;9807;48.258;12.690;2022-08-19T14:51:27;6.83;;;5.87;;
19341;SDS011;9807;48.258;12.690;2022-08-19T14:53:53;6.10;;;5.50;;
19341;SDS011;9807;48.258;12.690;2022-08-19T14:56:20;6.97;;;6.30;;
19341;SDS011;9807;48.258;12.690;2022-08-19T14:58:47;7.10;;;6.47;;
19341;SDS011;9807;48.258;12.690;2022-08-19T15:01:16;8.67;;;6.10;;
19341;SDS011;9807;48.258;12.690;2022-08-19T15:03:43;6.60;;;5.60;;